createdAt,value
2019-02-28T00:00:06.518Z,5.34
2019-02-28T00:10:03.107Z,5.41
2019-02-28T00:20:02.518Z,5.42
2019-02-28T00:30:05.942Z,5.19
2019-02-28T00:40:02.676Z,5.19
2019-02-28T00:50:03.021Z,5.25
2019-02-28T01:00:05.373Z,5.24
2019-02-28T01:10:04.503Z,5.13
2019-02-28T01:20:02.189Z,5.14
2019-02-28T01:30:06.587Z,5.09
2019-02-28T01:40:04.311Z,5.12
2019-02-28T01:50:02.587Z,5.19
2019-02-28T02:00:03.243Z,5.23
2019-02-28T02:10:03.582Z,5.19
2019-02-28T02:20:02.872Z,5.02
2019-02-28T02:30:03.012Z,5.04
2019-02-28T02:40:03.252Z,5.07
2019-02-28T02:50:02.991Z,4.94
2019-02-28T03:00:03.405Z,4.79
2019-02-28T03:10:02.627Z,4.51
2019-02-28T03:20:02.249Z,4.54
2019-02-28T03:30:03.139Z,4.52
2019-02-28T03:40:04.034Z,4.64
2019-02-28T03:50:03.137Z,4.56
2019-02-28T04:00:03.722Z,4.56
2019-02-28T04:10:03.073Z,4.61
2019-02-28T04:20:02.412Z,4.74
2019-02-28T04:30:07.842Z,4.74
2019-02-28T04:40:02.415Z,4.92
2019-02-28T04:50:02.568Z,4.68
2019-02-28T05:00:05.787Z,4.53
2019-02-28T05:10:02.945Z,4.74
2019-02-28T05:20:03.111Z,4.70
2019-02-28T05:30:02.903Z,4.66
2019-02-28T05:40:05.914Z,4.67
2019-02-28T05:50:02.917Z,4.60
2019-02-28T06:00:03.051Z,4.41
2019-02-28T06:10:02.903Z,4.74
2019-02-28T06:20:02.937Z,5.03
2019-02-28T06:30:02.963Z,5.52
2019-02-28T06:40:02.777Z,6.05
2019-02-28T06:50:03.163Z,6.72
2019-02-28T07:00:02.743Z,7.56
2019-02-28T07:10:03.208Z,8.23
2019-02-28T07:20:03.128Z,9.15
2019-02-28T07:30:03.641Z,10.82
2019-02-28T07:40:02.967Z,11.65
2019-02-28T07:50:07.606Z,12.35
2019-02-28T08:00:04.927Z,12.74
2019-02-28T08:10:02.990Z,13.41
2019-02-28T08:20:02.325Z,13.87
2019-02-28T08:30:03.372Z,14.41
2019-02-28T08:40:02.769Z,14.80
2019-02-28T08:50:03.003Z,15.24
2019-02-28T09:00:03.401Z,15.45
2019-02-28T09:10:02.862Z,15.53
2019-02-28T09:20:02.185Z,16.27
2019-02-28T09:30:03.060Z,16.34
2019-02-28T09:40:03.138Z,16.84
2019-02-28T09:50:03.230Z,17.11
2019-02-28T10:00:02.629Z,16.91
2019-02-28T10:10:02.989Z,17.05
2019-02-28T10:20:02.147Z,17.12
2019-02-28T10:30:03.040Z,17.17
2019-02-28T10:40:02.798Z,17.56
2019-02-28T10:50:02.954Z,17.32
2019-02-28T11:00:02.644Z,17.46
2019-02-28T11:10:03.229Z,17.46
2019-02-28T11:20:02.590Z,18.07
2019-02-28T11:30:03.459Z,17.65
2019-02-28T11:40:05.365Z,17.64
2019-02-28T11:50:04.041Z,17.54
2019-02-28T12:00:02.880Z,17.71
2019-02-28T12:10:03.408Z,17.40
2019-02-28T12:20:03.828Z,17.86
2019-02-28T12:30:03.172Z,17.99
2019-02-28T12:40:02.255Z,18.16
2019-02-28T12:50:02.143Z,17.82
2019-02-28T13:00:03.571Z,18.33
2019-02-28T13:10:04.001Z,18.17
2019-02-28T13:20:02.542Z,17.98
2019-02-28T13:30:05.342Z,17.92
2019-02-28T13:40:04.222Z,17.73
2019-02-28T13:50:05.358Z,17.86
2019-02-28T14:00:07.595Z,17.87
2019-02-28T14:10:02.712Z,18.01
2019-02-28T14:20:03.076Z,17.76
2019-02-28T14:30:02.910Z,17.45
2019-02-28T14:40:06.087Z,17.85
2019-02-28T14:50:02.983Z,17.50
2019-02-28T15:00:06.136Z,17.39
2019-02-28T15:10:02.670Z,17.20
2019-02-28T15:20:03.014Z,16.65
2019-02-28T15:30:03.059Z,16.91
2019-02-28T15:40:03.237Z,16.85
2019-02-28T15:50:02.042Z,16.77
2019-02-28T16:00:03.628Z,16.55
2019-02-28T16:10:02.600Z,16.45
2019-02-28T16:20:02.829Z,16.34
2019-02-28T16:30:02.677Z,16.06
2019-02-28T16:40:02.415Z,15.82
2019-02-28T16:50:02.831Z,15.49
2019-02-28T17:00:03.910Z,15.34
2019-02-28T17:10:04.490Z,15.24
2019-02-28T17:20:05.936Z,14.83
2019-02-28T17:30:02.896Z,14.79
2019-02-28T17:40:02.372Z,14.50
2019-02-28T17:50:05.331Z,14.42
2019-02-28T18:00:03.412Z,14.45
2019-02-28T18:10:02.710Z,14.14
2019-02-28T18:20:02.813Z,14.00
2019-02-28T18:30:02.729Z,13.88
2019-02-28T18:40:02.234Z,13.59
2019-02-28T18:50:02.742Z,13.48
2019-02-28T19:00:03.152Z,13.31
2019-02-28T19:10:07.559Z,13.06
2019-02-28T19:20:02.700Z,12.96
2019-02-28T19:30:02.598Z,12.78
2019-02-28T19:40:02.553Z,12.37
2019-02-28T19:50:02.580Z,12.38
2019-02-28T20:00:02.971Z,12.53
2019-02-28T20:10:02.150Z,12.51
2019-02-28T20:20:02.376Z,12.57
2019-02-28T20:30:03.475Z,12.47
2019-02-28T20:40:02.368Z,12.11
2019-02-28T20:50:03.134Z,11.61
2019-02-28T21:00:03.122Z,11.38
2019-02-28T21:10:02.361Z,11.36
2019-02-28T21:20:02.709Z,11.17
2019-02-28T21:30:02.530Z,10.96
2019-02-28T21:40:02.689Z,10.73
2019-02-28T21:50:02.267Z,10.63
2019-02-28T22:00:02.647Z,10.58
2019-02-28T22:10:02.810Z,10.48
2019-02-28T22:20:02.452Z,10.35
2019-02-28T22:30:02.994Z,10.29
2019-02-28T22:40:02.898Z,10.17
2019-02-28T22:50:03.091Z,9.93
2019-02-28T23:00:02.709Z,9.87
2019-02-28T23:10:03.200Z,9.91
2019-02-28T23:20:02.229Z,9.80
2019-02-28T23:30:03.161Z,9.93
2019-02-28T23:40:02.043Z,9.92
2019-02-28T23:50:03.124Z,9.87
